Time;durP1;ratioP1;P1;durP2;ratioP2;P2;SDS_P1;SDS_P2;PMS_P1;PMS_P2;Temp;Humidity;BMP_temperature;BMP_pressure;BME280_temperature;BME280_humidity;BME280_pressure;Samples;Min_cycle;Max_cycle;Signal;HPM_P1;HPM_P2
2023/08/06 00:03:10;;;;;;;99.28;37.13;;;;;;;;;;9984014;29;20600;-88
2023/08/06 00:08:11;;;;;;;97.22;35.92;;;;;;;;;;9996358;29;20030;-88
2023/08/06 00:13:12;;;;;;;108.90;37.85;;;;;;;;;;10001095;29;20539;-89
2023/08/06 00:18:13;;;;;;;105.25;36.72;;;;;;;;;;9985009;29;20034;-88
2023/08/06 00:23:14;;;;;;;111.63;39.95;;;;;;;;;;10003854;29;20038;-88
2023/08/06 00:28:15;;;;;;;118.15;39.63;;;;;;;;;;9994167;29;20029;-87
2023/08/06 00:33:16;;;;;;;87.35;34.97;;;;;;;;;;9982316;29;20065;-88
2023/08/06 00:38:17;;;;;;;92.68;35.10;;;;;;;;;;9991224;29;20049;-87
2023/08/06 00:43:18;;;;;;;81.68;31.75;;;;;;;;;;10000505;29;20054;-88
2023/08/06 00:48:20;;;;;;;69.38;29.23;;;;;;;;;;9980688;29;20035;-88
2023/08/06 00:53:21;;;;;;;49.67;26.00;;;;;;;;;;9980801;29;20084;-88
2023/08/06 00:58:22;;;;;;;47.30;23.25;;;;;;;;;;9964037;29;20058;-87
2023/08/06 01:03:23;;;;;;;60.10;27.90;;;;;;;;;;9992685;29;20038;-85
2023/08/06 01:08:49;;;;;;;52.53;25.48;;;;;;;;;;9978075;29;20082;-85
2023/08/06 01:13:53;;;;;;;51.40;24.50;;;;;;;;;;9977964;29;20062;-85
2023/08/06 01:18:54;;;;;;;51.63;26.08;;;;;;;;;;9983234;29;20042;-85
2023/08/06 01:23:55;;;;;;;45.85;24.52;;;;;;;;;;9982474;29;20454;-85
2023/08/06 01:29:15;;;;;;;47.78;24.55;;;;;;;;;;9997973;29;20034;-85
2023/08/06 01:34:21;;;;;;;39.33;21.98;;;;;;;;;;9991753;29;20037;-86
2023/08/06 01:39:23;;;;;;;44.42;23.35;;;;;;;;;;9990388;29;20491;-85
2023/08/06 01:44:24;;;;;;;38.90;23.17;;;;;;;;;;9980832;29;20065;-85
2023/08/06 01:49:25;;;;;;;44.03;22.88;;;;;;;;;;10002680;29;20559;-84
2023/08/06 01:54:27;;;;;;;45.85;24.83;;;;;;;;;;9996476;29;20524;-84
2023/08/06 01:59:28;;;;;;;38.92;22.60;;;;;;;;;;9995996;29;20073;-85
2023/08/06 02:04:29;;;;;;;45.97;23.38;;;;;;;;;;9987635;29;20053;-84
2023/08/06 02:09:30;;;;;;;42.90;23.80;;;;;;;;;;10004460;29;20501;-85
2023/08/06 02:14:31;;;;;;;56.95;27.23;;;;;;;;;;10006882;29;20045;-85
2023/08/06 02:19:32;;;;;;;61.00;31.23;;;;;;;;;;9993389;29;20072;-84
2023/08/06 02:24:33;;;;;;;66.05;33.90;;;;;;;;;;9985892;29;20049;-84
2023/08/06 02:29:34;;;;;;;61.10;33.20;;;;;;;;;;10001639;29;20046;-84
2023/08/06 02:34:35;;;;;;;54.60;29.35;;;;;;;;;;9990689;29;20078;-84
2023/08/06 02:39:39;;;;;;;47.60;26.80;;;;;;;;;;10005186;29;20444;-85
2023/08/06 02:44:40;;;;;;;46.88;27.38;;;;;;;;;;10006080;29;20728;-85
2023/08/06 02:49:41;;;;;;;52.03;30.15;;;;;;;;;;10003592;29;20034;-85
2023/08/06 02:54:43;;;;;;;73.10;35.97;;;;;;;;;;9986087;29;20038;-84
2023/08/06 02:59:44;;;;;;;59.58;33.08;;;;;;;;;;9985552;29;20046;-85
2023/08/06 03:04:45;;;;;;;69.78;34.50;;;;;;;;;;9974533;29;20046;-84
2023/08/06 03:09:46;;;;;;;67.22;33.92;;;;;;;;;;9980416;29;20048;-84
2023/08/06 03:14:47;;;;;;;81.18;33.50;;;;;;;;;;9983324;29;20440;-84
2023/08/06 03:19:48;;;;;;;60.40;33.13;;;;;;;;;;9976150;29;20114;-85
2023/08/06 03:24:51;;;;;;;58.58;31.27;;;;;;;;;;10000380;29;20034;-86
2023/08/06 03:29:52;;;;;;;65.35;37.72;;;;;;;;;;10002341;29;20044;-84
2023/08/06 03:34:53;;;;;;;77.55;39.35;;;;;;;;;;9999465;29;20493;-85
2023/08/06 03:39:54;;;;;;;90.28;43.92;;;;;;;;;;9996296;29;20050;-85
2023/08/06 03:44:55;;;;;;;91.78;45.63;;;;;;;;;;10007049;29;20084;-85
2023/08/06 03:49:56;;;;;;;73.07;34.42;;;;;;;;;;9986737;29;20034;-84
2023/08/06 03:54:57;;;;;;;102.40;40.72;;;;;;;;;;9996281;29;20038;-89
2023/08/06 03:59:58;;;;;;;101.22;38.92;;;;;;;;;;9985613;29;20117;-86
2023/08/06 04:04:59;;;;;;;116.95;37.85;;;;;;;;;;10001530;29;20103;-85
2023/08/06 04:10:01;;;;;;;104.70;38.25;;;;;;;;;;10007597;29;20406;-83
2023/08/06 04:15:03;;;;;;;127.30;40.22;;;;;;;;;;9969814;29;20042;-84
2023/08/06 04:20:05;;;;;;;131.98;42.30;;;;;;;;;;9994492;29;20065;-89
2023/08/06 04:25:06;;;;;;;136.80;43.30;;;;;;;;;;9987895;29;20128;-87
2023/08/06 04:30:07;;;;;;;121.82;38.83;;;;;;;;;;9977168;29;20040;-85
2023/08/06 04:35:08;;;;;;;126.55;41.47;;;;;;;;;;9976208;29;20044;-87
2023/08/06 04:40:09;;;;;;;148.98;43.90;;;;;;;;;;10011667;29;20495;-86
2023/08/06 04:45:10;;;;;;;94.40;33.67;;;;;;;;;;9993948;29;20096;-85
2023/08/06 04:50:11;;;;;;;170.85;47.10;;;;;;;;;;9992417;29;20098;-86
2023/08/06 04:55:12;;;;;;;204.75;50.10;;;;;;;;;;10012448;29;20033;-85
2023/08/06 05:00:13;;;;;;;209.52;53.67;;;;;;;;;;10009506;29;20125;-85
2023/08/06 05:05:14;;;;;;;264.73;57.22;;;;;;;;;;9993976;29;20705;-85
2023/08/06 05:10:16;;;;;;;299.42;58.13;;;;;;;;;;10010773;29;20030;-86
2023/08/06 05:15:17;;;;;;;291.02;52.13;;;;;;;;;;9991907;29;20026;-84
2023/08/06 05:20:18;;;;;;;248.70;52.17;;;;;;;;;;10002859;29;20042;-86
2023/08/06 05:25:21;;;;;;;324.15;56.65;;;;;;;;;;9993861;29;20057;-85
2023/08/06 05:30:22;;;;;;;229.07;48.58;;;;;;;;;;9988079;29;20063;-86
2023/08/06 05:35:23;;;;;;;201.02;43.78;;;;;;;;;;10005218;29;20045;-85
2023/08/06 05:40:25;;;;;;;227.60;46.42;;;;;;;;;;10009531;29;20517;-86
2023/08/06 05:45:26;;;;;;;178.93;43.28;;;;;;;;;;10006439;29;20061;-85
2023/08/06 05:50:27;;;;;;;171.20;41.70;;;;;;;;;;9992928;29;20532;-84
2023/08/06 05:55:28;;;;;;;221.43;47.88;;;;;;;;;;9993854;29;20128;-88
2023/08/06 06:00:29;;;;;;;246.48;50.67;;;;;;;;;;9977653;29;20144;-86
2023/08/06 06:05:30;;;;;;;217.02;47.97;;;;;;;;;;9964783;29;20037;-89
2023/08/06 06:10:31;;;;;;;231.35;49.42;;;;;;;;;;9978863;29;20526;-87
2023/08/06 06:15:32;;;;;;;244.05;52.25;;;;;;;;;;10001881;29;20058;-87
2023/08/06 06:20:34;;;;;;;214.10;51.13;;;;;;;;;;9992173;29;20054;-86
2023/08/06 06:25:35;;;;;;;209.13;54.28;;;;;;;;;;10006518;29;20034;-85
2023/08/06 06:30:36;;;;;;;229.60;57.67;;;;;;;;;;9998002;29;20065;-85
2023/08/06 06:35:37;;;;;;;148.18;42.13;;;;;;;;;;9992103;29;20096;-87
2023/08/06 06:40:38;;;;;;;70.10;27.30;;;;;;;;;;9969171;29;20047;-86
2023/08/06 06:45:39;;;;;;;51.15;20.52;;;;;;;;;;9987758;29;20138;-87
2023/08/06 06:50:56;;;;;;;32.97;16.38;;;;;;;;;;10005671;29;20026;-88
2023/08/06 06:56:01;;;;;;;39.00;15.80;;;;;;;;;;10001244;29;20089;-87
2023/08/06 07:01:05;;;;;;;41.28;15.82;;;;;;;;;;9993029;29;20051;-92
2023/08/06 07:06:06;;;;;;;34.80;12.10;;;;;;;;;;9992457;29;20505;-87
2023/08/06 07:11:07;;;;;;;9.15;4.55;;;;;;;;;;9993150;29;20048;-90
2023/08/06 07:16:08;;;;;;;3.92;2.25;;;;;;;;;;9997422;29;20510;-91
2023/08/06 07:21:10;;;;;;;5.03;2.30;;;;;;;;;;9985188;29;20068;-90
2023/08/06 07:26:11;;;;;;;1.10;1.00;;;;;;;;;;9975312;29;20395;-89
2023/08/06 07:31:12;;;;;;;3.30;1.80;;;;;;;;;;9989680;29;20030;-89
2023/08/06 07:36:13;;;;;;;7.97;1.63;;;;;;;;;;9997347;29;20048;-86
2023/08/06 07:41:14;;;;;;;5.80;1.95;;;;;;;;;;9976219;29;20494;-86
2023/08/06 07:46:16;;;;;;;10.45;2.38;;;;;;;;;;10011146;29;20257;-85
2023/08/06 07:51:17;;;;;;;7.50;2.22;;;;;;;;;;9990271;29;20037;-86
2023/08/06 07:56:18;;;;;;;8.15;1.80;;;;;;;;;;10004423;29;20033;-85
2023/08/06 08:01:19;;;;;;;1.98;1.05;;;;;;;;;;10006883;29;20103;-84
2023/08/06 08:06:20;;;;;;;3.75;1.80;;;;;;;;;;9997188;29;20114;-85
2023/08/06 08:11:21;;;;;;;4.65;1.65;;;;;;;;;;10012551;29;20037;-85
2023/08/06 08:16:22;;;;;;;6.63;2.90;;;;;;;;;;10011504;29;20038;-85
2023/08/06 08:21:26;;;;;;;8.50;4.85;;;;;;;;;;10009011;29;20038;-86
2023/08/06 08:26:27;;;;;;;8.43;4.25;;;;;;;;;;9974519;29;20080;-88
2023/08/06 08:31:29;;;;;;;7.13;4.95;;;;;;;;;;9980278;29;20045;-88
2023/08/06 08:36:30;;;;;;;4.25;2.88;;;;;;;;;;9974966;29;20094;-88
2023/08/06 08:41:32;;;;;;;10.25;4.03;;;;;;;;;;9972567;29;20038;-86
2023/08/06 08:46:35;;;;;;;4.82;2.40;;;;;;;;;;9998197;29;20106;-89
2023/08/06 08:51:36;;;;;;;3.38;2.85;;;;;;;;;;9967669;29;20034;-87
2023/08/06 08:56:44;;;;;;;3.38;2.65;;;;;;;;;;9997594;29;20543;-87
2023/08/06 09:01:46;;;;;;;10.48;4.88;;;;;;;;;;9978528;29;20089;-90
2023/08/06 09:06:50;;;;;;;3.90;2.83;;;;;;;;;;9993969;29;20064;-89
2023/08/06 09:11:52;;;;;;;3.90;3.33;;;;;;;;;;9993116;29;20048;-88
2023/08/06 09:16:57;;;;;;;1.48;0.88;;;;;;;;;;9986656;29;20065;-89
2023/08/06 09:21:59;;;;;;;2.38;1.45;;;;;;;;;;9975455;29;20460;-90
2023/08/06 09:27:03;;;;;;;2.83;2.00;;;;;;;;;;9984628;29;20041;-88
2023/08/06 09:32:04;;;;;;;1.98;1.40;;;;;;;;;;9992936;29;20392;-89
2023/08/06 09:37:05;;;;;;;2.70;1.15;;;;;;;;;;10001783;29;20038;-88
2023/08/06 09:42:15;;;;;;;1.38;1.10;;;;;;;;;;9973807;29;20058;-87
2023/08/06 09:47:18;;;;;;;2.72;1.50;;;;;;;;;;9997112;29;20060;-86
2023/08/06 09:57:41;;;;;;;0.52;0.52;;;;;;;;;;9995393;29;20104;-86
2023/08/06 10:08:20;;;;;;;2.03;1.20;;;;;;;;;;9990583;29;20037;-88
2023/08/06 10:13:22;;;;;;;1.60;1.05;;;;;;;;;;9969823;29;20026;-87
2023/08/06 10:18:23;;;;;;;0.57;0.57;;;;;;;;;;9979457;29;20045;-87
2023/08/06 10:35:07;;;;;;;0.50;0.50;;;;;;;;;;10000508;29;20772;-86
2023/08/06 10:40:24;;;;;;;0.60;0.60;;;;;;;;;;9974535;29;20057;-89
2023/08/06 10:51:42;;;;;;;1.30;0.80;;;;;;;;;;9984777;29;20499;-91
2023/08/06 11:02:22;;;;;;;2.72;1.77;;;;;;;;;;9982970;29;20113;-87
2023/08/06 11:07:28;;;;;;;2.58;1.50;;;;;;;;;;9964186;29;20391;-90
2023/08/06 11:12:29;;;;;;;4.45;2.33;;;;;;;;;;9973320;29;20042;-89
2023/08/06 11:39:06;;;;;;;3.17;2.00;;;;;;;;;;10001802;29;20055;-87
2023/08/06 11:44:07;;;;;;;2.33;1.40;;;;;;;;;;9973570;29;20406;-84
2023/08/06 11:49:08;;;;;;;1.65;1.30;;;;;;;;;;10011877;29;20042;-83
2023/08/06 11:54:09;;;;;;;3.53;2.50;;;;;;;;;;10011176;29;20152;-84
2023/08/06 11:59:10;;;;;;;3.53;2.22;;;;;;;;;;9995404;29;20052;-86
2023/08/06 12:04:26;;;;;;;4.28;3.20;;;;;;;;;;10010903;29;20030;-86
2023/08/06 12:09:27;;;;;;;13.25;6.68;;;;;;;;;;9991732;29;20506;-87
2023/08/06 12:14:34;;;;;;;9.13;5.18;;;;;;;;;;10011518;29;20090;-85
2023/08/06 12:19:35;;;;;;;5.97;2.92;;;;;;;;;;9993526;29;20053;-88
2023/08/06 12:24:36;;;;;;;1.63;1.50;;;;;;;;;;9961162;29;20119;-85
2023/08/06 12:29:50;;;;;;;1.70;1.33;;;;;;;;;;9953999;29;20531;-87
2023/08/06 12:34:51;;;;;;;1.50;1.40;;;;;;;;;;9951942;29;20125;-86
2023/08/06 12:39:52;;;;;;;1.63;1.52;;;;;;;;;;9967546;29;20050;-86
2023/08/06 12:44:53;;;;;;;3.15;1.88;;;;;;;;;;9955729;29;20040;-85
2023/08/06 12:50:04;;;;;;;1.30;1.08;;;;;;;;;;9973831;29;20071;-86
2023/08/06 13:00:44;;;;;;;3.78;2.20;;;;;;;;;;9960355;29;20089;-87
2023/08/06 13:05:45;;;;;;;3.70;2.28;;;;;;;;;;9947055;29;20031;-86
2023/08/06 13:11:14;;;;;;;3.83;2.72;;;;;;;;;;9943969;29;20098;-88
2023/08/06 13:16:15;;;;;;;2.35;1.90;;;;;;;;;;9926080;29;20049;-84
2023/08/06 13:27:20;;;;;;;1.40;1.30;;;;;;;;;;9900910;29;20054;-86
2023/08/06 13:32:36;;;;;;;2.17;1.40;;;;;;;;;;9920752;29;20031;-86
2023/08/06 13:43:19;;;;;;;1.00;0.90;;;;;;;;;;9927328;29;20047;-86
2023/08/06 13:48:50;;;;;;;1.38;1.17;;;;;;;;;;9967229;29;20598;-86
2023/08/06 13:53:52;;;;;;;1.30;1.20;;;;;;;;;;9957303;29;20037;-87
2023/08/06 13:58:53;;;;;;;1.33;1.08;;;;;;;;;;9969298;29;20039;-87
2023/08/06 14:04:04;;;;;;;1.33;1.05;;;;;;;;;;9971217;29;20044;-88
2023/08/06 14:09:22;;;;;;;1.70;1.20;;;;;;;;;;9952545;29;20127;-88
2023/08/06 14:14:26;;;;;;;1.88;1.30;;;;;;;;;;9953807;29;20045;-87
2023/08/06 14:19:27;;;;;;;1.35;1.02;;;;;;;;;;9967658;29;20042;-87
2023/08/06 14:24:28;;;;;;;1.10;1.00;;;;;;;;;;9969962;29;20114;-87
2023/08/06 14:29:35;;;;;;;2.03;1.70;;;;;;;;;;9983226;29;20053;-87
2023/08/06 14:40:26;;;;;;;2.72;2.15;;;;;;;;;;9965039;29;20050;-88
2023/08/06 14:45:27;;;;;;;3.17;2.13;;;;;;;;;;9953632;29;20049;-89
2023/08/06 14:50:28;;;;;;;1.50;1.40;;;;;;;;;;9952113;29;20046;-88
2023/08/06 15:01:32;;;;;;;2.40;1.45;;;;;;;;;;9961281;29;20557;-88
2023/08/06 15:29:23;;;;;;;2.20;1.90;;;;;;;;;;9834853;29;20106;-86
2023/08/06 15:34:25;;;;;;;2.05;1.58;;;;;;;;;;9880062;29;20035;-86
2023/08/06 15:39:26;;;;;;;4.93;2.97;;;;;;;;;;9897180;29;20047;-86
2023/08/06 15:44:27;;;;;;;3.97;2.50;;;;;;;;;;9897708;29;20126;-86
2023/08/06 15:49:28;;;;;;;3.72;2.60;;;;;;;;;;9899197;29;20150;-85
2023/08/06 15:54:29;;;;;;;9.73;2.88;;;;;;;;;;9899550;29;20039;-87
2023/08/06 15:59:32;;;;;;;4.10;2.75;;;;;;;;;;9898538;29;20489;-86
2023/08/06 16:04:33;;;;;;;4.57;2.83;;;;;;;;;;9881554;30;20050;-86
2023/08/06 16:09:34;;;;;;;4.15;2.08;;;;;;;;;;9899211;29;20120;-86
2023/08/06 16:14:36;;;;;;;2.92;2.00;;;;;;;;;;9900169;29;20050;-86
2023/08/06 16:19:37;;;;;;;2.88;2.40;;;;;;;;;;9898665;29;20062;-85
2023/08/06 16:24:41;;;;;;;6.22;1.70;;;;;;;;;;9889577;29;20042;-87
2023/08/06 16:30:07;;;;;;;4.65;1.90;;;;;;;;;;9969321;29;20034;-86
2023/08/06 16:52:37;;;;;;;4.85;3.30;;;;;;;;;;9957978;29;20038;-86
2023/08/06 16:57:38;;;;;;;2.72;2.15;;;;;;;;;;9953140;29;20046;-86
2023/08/06 17:31:07;;;;;;;5.22;2.88;;;;;;;;;;9917314;29;20062;-84
2023/08/06 17:53:36;;;;;;;4.28;1.75;;;;;;;;;;12053973;24;20067;-86
2023/08/06 17:59:01;;;;;;;3.40;2.15;;;;;;;;;;9869734;30;20091;-85
2023/08/06 18:04:38;;;;;;;3.95;1.85;;;;;;;;;;9845694;30;20179;-87
2023/08/06 18:21:25;;;;;;;2.83;2.00;;;;;;;;;;9857004;29;20579;-87
2023/08/06 18:26:26;;;;;;;2.33;1.60;;;;;;;;;;9819748;30;20401;-87
2023/08/06 18:31:28;;;;;;;1.85;1.48;;;;;;;;;;9813731;30;20043;-87
2023/08/06 18:36:29;;;;;;;3.35;2.03;;;;;;;;;;9821212;30;20047;-86
2023/08/06 18:41:30;;;;;;;7.10;2.08;;;;;;;;;;9820628;30;20044;-88
2023/08/06 18:46:31;;;;;;;3.53;2.00;;;;;;;;;;9818410;30;20032;-89
2023/08/06 18:51:32;;;;;;;3.92;2.70;;;;;;;;;;9819283;30;20068;-87
2023/08/06 18:56:33;;;;;;;3.90;2.80;;;;;;;;;;9820820;30;20533;-85
2023/08/06 19:01:34;;;;;;;3.88;2.65;;;;;;;;;;9819230;30;20060;-85
2023/08/06 19:06:35;;;;;;;3.95;2.78;;;;;;;;;;9817937;30;20025;-85
2023/08/06 19:17:21;;;;;;;6.40;3.47;;;;;;;;;;9820603;30;20040;-86
2023/08/06 19:22:54;;;;;;;6.15;3.20;;;;;;;;;;9822312;30;20501;-87
2023/08/06 19:56:00;;;;;;;2.88;1.90;;;;;;;;;;9809433;30;20052;-85
2023/08/06 20:01:01;;;;;;;4.75;2.05;;;;;;;;;;9816834;30;20161;-88
2023/08/06 20:06:05;;;;;;;3.78;2.40;;;;;;;;;;9829985;30;20051;-86
2023/08/06 20:11:17;;;;;;;3.80;2.10;;;;;;;;;;9819536;30;20040;-90
2023/08/06 21:01:22;;;;;;;4.83;3.27;;;;;;;;;;9933321;29;20070;-87
2023/08/06 21:12:37;;;;;;;4.60;3.30;;;;;;;;;;9922280;29;20039;-88
2023/08/06 21:17:39;;;;;;;5.72;3.03;;;;;;;;;;9913310;29;20473;-87
2023/08/06 21:22:58;;;;;;;7.28;3.53;;;;;;;;;;9934254;29;20053;-88
2023/08/06 21:28:02;;;;;;;6.15;3.13;;;;;;;;;;9933973;29;20051;-85
2023/08/06 21:33:03;;;;;;;5.55;3.40;;;;;;;;;;9932336;29;20057;-87
2023/08/06 21:38:04;;;;;;;3.95;3.30;;;;;;;;;;9932474;29;20495;-89
2023/08/06 21:43:14;;;;;;;4.07;3.28;;;;;;;;;;9929509;29;20051;-90
2023/08/06 21:48:15;;;;;;;4.63;3.08;;;;;;;;;;9927049;29;20198;-87
2023/08/06 21:59:08;;;;;;;5.47;3.08;;;;;;;;;;9888401;29;20051;-86
2023/08/06 22:04:09;;;;;;;5.47;3.30;;;;;;;;;;9895148;29;20131;-87
2023/08/06 22:09:32;;;;;;;5.22;3.53;;;;;;;;;;9896950;29;20035;-87
2023/08/06 22:14:33;;;;;;;4.05;3.17;;;;;;;;;;9894237;30;20634;-87
2023/08/06 22:19:34;;;;;;;4.78;2.92;;;;;;;;;;9897586;29;20043;-87
2023/08/06 22:24:35;;;;;;;3.97;2.78;;;;;;;;;;9911214;29;20058;-86
2023/08/06 22:51:39;;;;;;;10.27;4.20;;;;;;;;;;10875612;24;20061;-87
2023/08/06 22:56:59;;;;;;;11.23;5.43;;;;;;;;;;10028986;29;20045;-87
2023/08/06 23:07:39;;;;;;;12.75;6.93;;;;;;;;;;10040281;29;20495;-86
2023/08/06 23:18:21;;;;;;;19.33;8.88;;;;;;;;;;10465991;24;20062;-86
2023/08/06 23:23:22;;;;;;;15.27;7.72;;;;;;;;;;10027068;29;20042;-87
2023/08/06 23:28:25;;;;;;;12.48;6.45;;;;;;;;;;10010816;29;20049;-88
2023/08/06 23:33:26;;;;;;;8.85;4.82;;;;;;;;;;10018738;29;20052;-86
2023/08/06 23:38:27;;;;;;;10.15;4.32;;;;;;;;;;10018191;29;20149;-87
2023/08/06 23:43:28;;;;;;;8.43;4.78;;;;;;;;;;10007261;29;20513;-88
2023/08/06 23:48:35;;;;;;;7.53;4.63;;;;;;;;;;10027837;29;20042;-88
2023/08/06 23:59:15;;;;;;;7.47;4.80;;;;;;;;;;10043361;29;20053;-87
